Time;durP1;ratioP1;P1;durP2;ratioP2;P2;SDS_P1;SDS_P2;PMS_P1;PMS_P2;Temp;Humidity;BMP_temperature;BMP_pressure;BME280_temperature;BME280_humidity;BME280_pressure;Samples;Min_cycle;Max_cycle;Signal;HPM_P1;HPM_P2
2023/10/02 00:00:43;;;;;;;244.85;136.95;;;28.00;99.90;;;;;;5094681;28;20042;-67
2023/10/02 00:03:09;;;;;;;235.20;130.43;;;28.00;99.90;;;;;;5095446;28;20028;-69
2023/10/02 00:05:57;;;;;;;215.73;126.13;;;28.00;99.90;;;;;;5095611;28;20078;-69
2023/10/02 00:11:39;;;;;;;183.57;106.93;;;28.00;99.90;;;;;;5081934;28;20066;-65
2023/10/02 00:14:18;;;;;;;190.00;104.95;;;28.00;99.90;;;;;;5095214;28;20036;-67
2023/10/02 00:19:32;;;;;;;172.73;101.88;;;28.00;99.90;;;;;;5089127;28;20056;-69
2023/10/02 00:22:06;;;;;;;180.68;104.70;;;28.10;99.90;;;;;;5094802;28;20036;-66
2023/10/02 00:24:40;;;;;;;190.77;101.38;;;28.10;99.90;;;;;;5095159;28;20349;-66
2023/10/02 00:27:08;;;;;;;178.50;98.28;;;28.10;99.90;;;;;;5095407;28;20119;-64
2023/10/02 00:29:51;;;;;;;175.73;95.13;;;28.20;99.90;;;;;;5095489;28;20444;-66
2023/10/02 00:32:19;;;;;;;;;;;28.20;99.90;;;;;;5095390;28;20025;-66
2023/10/02 00:34:52;;;;;;;154.93;88.30;;;28.30;99.90;;;;;;5094805;28;19912;-64
2023/10/02 00:37:19;;;;;;;138.32;80.97;;;28.30;99.90;;;;;;5094861;28;20035;-65
2023/10/02 00:39:52;;;;;;;140.93;80.93;;;28.30;99.90;;;;;;5094881;28;20081;-63
2023/10/02 00:44:56;;;;;;;144.40;83.13;;;28.40;99.90;;;;;;5094733;28;20023;-65
2023/10/02 00:48:24;;;;;;;147.50;82.05;;;28.50;99.90;;;;;;5094441;28;20084;-64
2023/10/02 00:50:24;;;;;;;146.40;82.55;;;28.60;99.90;;;;;;5094093;28;20060;-66
2023/10/02 00:52:58;;;;;;;137.68;82.38;;;28.60;99.90;;;;;;5094419;28;20085;-66
2023/10/02 00:55:30;;;;;;;185.98;107.32;;;28.60;99.90;;;;;;5094388;28;20073;-65
2023/10/02 00:57:57;;;;;;;192.95;116.72;;;28.70;99.90;;;;;;5094384;28;20444;-66
2023/10/02 01:00:31;;;;;;;182.27;108.20;;;28.80;99.90;;;;;;5094200;28;20040;-66
2023/10/02 01:03:01;;;;;;;159.43;92.28;;;28.80;99.90;;;;;;5094280;28;20024;-65
2023/10/02 01:05:41;;;;;;;134.55;80.65;;;28.90;99.90;;;;;;5094165;28;20028;-65
2023/10/02 01:08:42;;;;;;;239.25;150.23;;;29.00;99.90;;;;;;5094272;28;20027;-66
2023/10/02 01:11:13;;;;;;;153.85;88.35;;;29.00;99.90;;;;;;5094142;28;20067;-65
2023/10/02 01:13:40;;;;;;;111.43;67.30;;;29.10;99.90;;;;;;5094021;28;20064;-65
2023/10/02 01:16:08;;;;;;;107.43;59.50;;;29.20;99.90;;;;;;5093972;28;20103;-65
2023/10/02 01:18:36;;;;;;;101.85;57.92;;;29.20;99.90;;;;;;5093867;28;20079;-65
2023/10/02 01:21:11;;;;;;;97.43;59.13;;;29.20;99.90;;;;;;5093789;28;20411;-65
2023/10/02 01:24:08;;;;;;;93.80;57.00;;;29.30;99.90;;;;;;5089452;28;20039;-64
2023/10/02 01:26:50;;;;;;;94.88;55.33;;;29.30;99.90;;;;;;5072805;28;20032;-65
2023/10/02 01:29:17;;;;;;;82.43;48.15;;;29.40;99.90;;;;;;5073459;28;20028;-65
2023/10/02 01:31:51;;;;;;;90.55;52.08;;;29.40;99.90;;;;;;5073413;28;20055;-64
2023/10/02 01:34:35;;;;;;;142.65;95.13;;;29.50;99.90;;;;;;5073392;28;20093;-65
2023/10/02 01:37:32;;;;;;;92.82;58.47;;;29.50;99.90;;;;;;5073897;28;20497;-65
2023/10/02 01:40:24;;;;;;;80.90;51.83;;;29.60;99.90;;;;;;5072468;28;20039;-69
2023/10/02 01:42:38;;;;;;;78.60;47.13;;;29.70;99.90;;;;;;5072922;28;20506;-67
2023/10/02 01:45:05;;;;;;;72.70;46.25;;;29.70;99.90;;;;;;5072947;28;20047;-71
2023/10/02 01:47:41;;;;;;;78.53;44.50;;;29.80;99.90;;;;;;5073311;28;20136;-69
2023/10/02 01:50:09;;;;;;;67.43;43.97;;;29.80;99.90;;;;;;5072553;28;20033;-70
2023/10/02 01:52:37;;;;;;;61.00;40.63;;;29.90;99.90;;;;;;5071366;28;20032;-70
2023/10/02 01:55:04;;;;;;;60.55;40.03;;;30.00;99.90;;;;;;5072840;28;20031;-70
2023/10/02 01:57:34;;;;;;;60.38;40.90;;;30.10;99.90;;;;;;5072806;28;20035;-70
2023/10/02 02:00:13;;;;;;;62.45;39.55;;;30.10;99.90;;;;;;5072645;28;20033;-69
2023/10/02 02:02:41;;;;;;;116.03;71.70;;;30.20;99.90;;;;;;5075230;28;20058;-68
2023/10/02 02:05:14;;;;;;;70.88;46.45;;;30.30;99.90;;;;;;5089136;28;20032;-70
2023/10/02 02:07:40;;;;;;;73.30;44.75;;;30.30;99.90;;;;;;5093097;28;20016;-70
2023/10/02 02:10:08;;;;;;;103.80;68.18;;;30.50;99.90;;;;;;5093132;28;20025;-69
2023/10/02 02:12:44;;;;;;;189.88;114.93;;;30.50;99.90;;;;;;5092814;28;20039;-67
2023/10/02 02:15:11;;;;;;;157.07;108.70;;;30.50;99.90;;;;;;5092960;28;20027;-68
2023/10/02 02:17:41;;;;;;;276.48;189.13;;;30.60;99.90;;;;;;5092505;28;20070;-69
2023/10/02 02:20:11;;;;;;;249.13;150.98;;;30.70;99.90;;;;;;5092916;28;20043;-71
2023/10/02 02:22:38;;;;;;;93.20;55.70;;;30.80;99.90;;;;;;5092815;28;20509;-69
2023/10/02 02:25:05;;;;;;;86.05;53.58;;;30.80;99.90;;;;;;5092763;28;20417;-69
2023/10/02 02:27:31;;;;;;;195.77;108.22;;;30.90;99.90;;;;;;5092822;28;20565;-69
2023/10/02 02:29:59;;;;;;;200.20;118.03;;;31.00;99.90;;;;;;5092988;28;20237;-71
2023/10/02 02:32:37;;;;;;;151.32;93.70;;;31.00;99.90;;;;;;5092424;28;20030;-65
2023/10/02 02:35:05;;;;;;;93.35;56.08;;;31.10;99.90;;;;;;5092669;28;20036;-70
2023/10/02 02:37:32;;;;;;;94.78;57.88;;;31.10;99.90;;;;;;5092843;28;20024;-67
2023/10/02 02:42:51;;;;;;;80.50;47.53;;;31.20;99.90;;;;;;5092732;28;20077;-68
2023/10/02 02:45:28;;;;;;;76.18;46.63;;;31.30;99.90;;;;;;5092236;28;20032;-69
2023/10/02 02:48:05;;;;;;;72.80;46.60;;;31.40;99.90;;;;;;5088315;28;20181;-70
2023/10/02 02:50:40;;;;;;;69.82;44.65;;;31.50;99.90;;;;;;5088404;28;20020;-70
2023/10/02 02:53:21;;;;;;;74.13;48.08;;;31.60;99.90;;;;;;5083924;28;20017;-70
2023/10/02 02:56:25;;;;;;;75.35;46.67;;;31.70;99.90;;;;;;5087064;28;20482;-71
2023/10/02 02:58:56;;;;;;;74.65;47.08;;;31.70;99.90;;;;;;5084366;28;20078;-69
2023/10/02 03:01:23;;;;;;;77.22;49.70;;;31.80;99.90;;;;;;5078129;28;20092;-70
2023/10/02 03:03:55;;;;;;;73.20;48.40;;;31.80;99.90;;;;;;5084508;28;20033;-70
2023/10/02 03:06:24;;;;;;;;;;;31.90;99.90;;;;;;5082322;28;20020;-69
2023/10/02 03:08:52;;;;;;;73.63;48.47;;;32.00;99.90;;;;;;5081886;28;19904;-69
2023/10/02 03:11:21;;;;;;;69.63;49.83;;;32.10;99.90;;;;;;5082225;28;20092;-67
2023/10/02 03:13:49;;;;;;;69.45;48.92;;;32.20;99.90;;;;;;5083523;28;20382;-70
2023/10/02 03:16:28;;;;;;;73.20;47.22;;;32.20;99.90;;;;;;5081927;28;20055;-69
2023/10/02 03:18:55;;;;;;;62.45;43.80;;;32.30;99.90;;;;;;5086997;28;20402;-70
2023/10/02 03:21:22;;;;;;;68.78;45.00;;;32.40;99.90;;;;;;5085077;28;20016;-68
2023/10/02 03:23:54;;;;;;;64.40;42.08;;;32.50;99.90;;;;;;5084856;28;20031;-68
2023/10/02 03:26:44;;;;;;;58.33;43.30;;;32.50;99.90;;;;;;5082144;28;20100;-67
2023/10/02 03:29:21;;;;;;;58.85;43.08;;;32.50;99.90;;;;;;5085856;28;20020;-66
2023/10/02 03:31:52;;;;;;;64.43;42.72;;;32.70;99.90;;;;;;5087283;28;20096;-66
2023/10/02 03:34:28;;;;;;;60.78;44.50;;;32.70;99.90;;;;;;5085464;28;20036;-66
2023/10/02 03:37:00;;;;;;;59.55;45.40;;;32.80;99.90;;;;;;5083803;28;20024;-66
2023/10/02 03:42:22;;;;;;;68.10;46.72;;;33.00;99.90;;;;;;5078655;28;19965;-66
2023/10/02 03:44:59;;;;;;;68.17;46.03;;;33.00;99.90;;;;;;5072655;28;20020;-66
2023/10/02 03:47:37;;;;;;;59.42;43.40;;;33.00;99.90;;;;;;5084635;28;20253;-65
2023/10/02 03:50:11;;;;;;;73.20;47.45;;;33.10;99.90;;;;;;5088734;28;20023;-66
2023/10/02 03:52:41;;;;;;;66.90;47.28;;;33.20;99.90;;;;;;5094041;28;20379;-65
2023/10/02 03:55:15;;;;;;;71.65;47.35;;;33.20;99.90;;;;;;5092973;28;20116;-65
2023/10/02 03:57:50;;;;;;;64.68;47.40;;;33.30;99.90;;;;;;5092406;28;20447;-67
2023/10/02 04:00:27;;;;;;;65.88;48.83;;;33.40;99.90;;;;;;5086629;28;20019;-68
2023/10/02 04:02:56;;;;;;;68.07;49.08;;;33.50;99.90;;;;;;5086688;28;20037;-68
2023/10/02 04:08:25;;;;;;;69.88;51.67;;;33.50;99.90;;;;;;5079748;28;20103;-68
2023/10/02 04:10:56;;;;;;;65.57;47.58;;;33.60;99.90;;;;;;5083942;28;20029;-67
2023/10/02 04:13:29;;;;;;;63.88;45.17;;;33.70;99.90;;;;;;5085687;28;20092;-66
2023/10/02 04:16:28;;;;;;;61.33;44.00;;;33.70;99.90;;;;;;5086280;28;20034;-64
2023/10/02 04:18:59;;;;;;;52.80;42.95;;;33.80;99.90;;;;;;5085661;28;20036;-66
2023/10/02 04:21:27;;;;;;;58.15;40.58;;;33.80;99.90;;;;;;5085634;28;20016;-66
2023/10/02 04:23:54;;;;;;;57.58;39.15;;;33.80;99.90;;;;;;5089687;28;20059;-66
2023/10/02 04:26:28;;;;;;;61.63;42.80;;;33.90;99.90;;;;;;5087118;28;20066;-68
2023/10/02 04:29:14;;;;;;;85.50;52.47;;;33.90;99.90;;;;;;5083286;28;20020;-64
2023/10/02 04:31:44;;;;;;;74.85;53.75;;;34.00;99.90;;;;;;5095132;28;20157;-64
2023/10/02 04:34:29;;;;;;;49.03;36.40;;;34.00;99.90;;;;;;5084477;28;20035;-66
2023/10/02 04:36:56;;;;;;;70.82;49.97;;;34.10;99.90;;;;;;5085996;28;20032;-65
2023/10/02 04:42:21;;;;;;;56.63;42.10;;;34.10;99.90;;;;;;5087278;28;20031;-65
2023/10/02 04:44:58;;;;;;;61.67;38.45;;;34.10;99.90;;;;;;5087978;28;20034;-66
2023/10/02 04:47:30;;;;;;;54.35;37.92;;;34.10;99.90;;;;;;5089149;28;20614;-66
2023/10/02 04:55:31;;;;;;;62.28;41.95;;;34.20;99.90;;;;;;5086189;28;20024;-65
2023/10/02 04:58:09;;;;;;;60.28;39.40;;;34.30;99.90;;;;;;5094251;28;20025;-66
2023/10/02 05:03:31;;;;;;;46.35;34.53;;;34.30;99.90;;;;;;5088445;28;20363;-65
2023/10/02 05:05:58;;;;;;;50.60;37.58;;;34.40;99.90;;;;;;5088130;28;20416;-65
2023/10/02 05:09:19;;;;;;;71.70;54.63;;;34.50;99.90;;;;;;5084152;28;20020;-69
2023/10/02 05:11:46;;;;;;;57.65;40.45;;;34.60;99.90;;;;;;5083308;28;20023;-65
2023/10/02 05:14:15;;;;;;;53.75;37.50;;;34.60;99.90;;;;;;5085205;28;20027;-71
2023/10/02 05:16:45;;;;;;;104.55;76.38;;;34.60;99.90;;;;;;5079174;28;20028;-66
2023/10/02 05:19:15;;;;;;;121.75;89.13;;;34.60;99.90;;;;;;5081320;28;20065;-66
2023/10/02 05:21:51;;;;;;;118.40;86.13;;;34.70;99.90;;;;;;5083132;28;20074;-68
2023/10/02 05:24:19;;;;;;;87.63;63.28;;;34.70;99.90;;;;;;5084222;28;20512;-68
2023/10/02 05:26:46;;;;;;;64.65;49.03;;;34.80;99.90;;;;;;5084473;28;20470;-68
2023/10/02 05:29:59;;;;;;;59.75;44.17;;;34.90;99.90;;;;;;5083260;28;20052;-67
2023/10/02 05:32:16;;;;;;;75.38;45.65;;;34.90;99.90;;;;;;5078900;28;20037;-67
2023/10/02 05:34:58;;;;;;;60.47;43.75;;;34.80;99.90;;;;;;5080660;28;20501;-68
2023/10/02 05:37:31;;;;;;;57.65;40.30;;;34.70;99.90;;;;;;5084476;28;20471;-67
2023/10/02 05:46:06;;;;;;;71.00;48.75;;;34.50;99.90;;;;;;5073647;28;20094;-67
2023/10/02 05:50:56;;;;;;;54.90;41.72;;;34.60;99.90;;;;;;5073998;28;20094;-65
2023/10/02 05:53:25;;;;;;;;;;;34.70;99.90;;;;;;5073805;28;20126;-65
2023/10/02 05:58:41;;;;;;;50.40;38.90;;;34.90;99.90;;;;;;5073441;28;20479;-65
2023/10/02 06:01:23;;;;;;;53.78;38.90;;;35.00;99.80;;;;;;5073582;28;20425;-65
2023/10/02 06:04:00;;;;;;;55.28;41.08;;;35.10;99.80;;;;;;5073479;28;20035;-65
2023/10/02 06:06:35;;;;;;;57.10;42.25;;;35.20;99.60;;;;;;5073187;28;20025;-65
2023/10/02 06:09:03;;;;;;;54.75;42.63;;;35.30;99.40;;;;;;5073200;28;20025;-65
2023/10/02 06:11:34;;;;;;;61.92;41.17;;;35.40;98.80;;;;;;5073061;28;20024;-66
2023/10/02 06:14:13;;;;;;;49.78;39.63;;;35.30;99.30;;;;;;5073304;28;20074;-66
2023/10/02 06:16:48;;;;;;;56.42;40.80;;;35.30;99.20;;;;;;5072880;28;20508;-66
2023/10/02 06:19:14;;;;;;;48.80;39.47;;;35.40;99.50;;;;;;5072640;28;20048;-67
2023/10/02 06:22:00;;;;;;;52.88;40.03;;;35.50;99.00;;;;;;5072709;28;20475;-68
2023/10/02 06:24:28;;;;;;;49.42;37.85;;;35.50;98.70;;;;;;5078996;28;20039;-65
2023/10/02 06:26:57;;;;;;;50.80;38.80;;;35.50;97.60;;;;;;5082203;28;20421;-66
2023/10/02 06:29:37;;;;;;;51.03;38.13;;;35.50;98.20;;;;;;5083352;28;20020;-68
2023/10/02 06:32:05;;;;;;;59.22;39.40;;;35.50;97.80;;;;;;5083438;28;20474;-67
2023/10/02 06:34:39;;;;;;;50.20;37.90;;;35.50;97.90;;;;;;5082380;28;20084;-66
2023/10/02 06:37:13;;;;;;;64.88;39.17;;;35.60;97.90;;;;;;5083369;28;20374;-68
2023/10/02 06:42:32;;;;;;;53.00;39.05;;;35.70;97.00;;;;;;5083512;28;20024;-67
2023/10/02 06:45:01;;;;;;;46.80;36.95;;;35.80;97.30;;;;;;5083197;28;20039;-66
2023/10/02 06:47:30;;;;;;;52.70;40.85;;;35.70;97.60;;;;;;5083143;28;20039;-67
2023/10/02 06:50:04;;;;;;;58.33;40.13;;;35.80;97.20;;;;;;5082834;28;20029;-67
2023/10/02 06:52:35;;;;;;;56.30;41.55;;;35.90;97.00;;;;;;5090566;28;20027;-69
2023/10/02 06:55:03;;;;;;;59.05;41.80;;;35.80;96.40;;;;;;5093027;28;20034;-64
2023/10/02 06:57:31;;;;;;;58.45;42.63;;;35.80;96.40;;;;;;5092659;28;20051;-67
2023/10/02 06:59:58;;;;;;;60.33;43.60;;;35.90;97.10;;;;;;5092556;28;20039;-66
2023/10/02 07:02:27;;;;;;;58.33;40.22;;;35.90;96.80;;;;;;5092703;28;20216;-67
2023/10/02 07:04:56;;;;;;;61.42;40.58;;;36.00;96.40;;;;;;5092576;28;20417;-66
2023/10/02 07:07:29;;;;;;;57.53;44.72;;;36.00;96.70;;;;;;5092435;28;20012;-66
2023/10/02 07:10:07;;;;;;;56.78;43.65;;;36.00;96.20;;;;;;5092475;28;20047;-66
2023/10/02 07:12:40;;;;;;;59.08;42.65;;;36.00;96.40;;;;;;5092402;28;20024;-66
2023/10/02 07:15:10;;;;;;;59.05;44.05;;;36.00;96.10;;;;;;5092744;28;20024;-67
2023/10/02 07:17:47;;;;;;;58.75;43.28;;;36.00;96.00;;;;;;5092200;28;20090;-67
2023/10/02 07:20:20;;;;;;;60.13;42.50;;;36.00;96.30;;;;;;5092567;28;20037;-66
2023/10/02 07:22:47;;;;;;;67.55;49.25;;;36.00;95.90;;;;;;5092424;28;20031;-68
2023/10/02 07:25:24;;;;;;;69.60;50.08;;;36.10;96.20;;;;;;5076544;28;20024;-67
2023/10/02 07:27:51;;;;;;;66.60;49.80;;;36.20;95.90;;;;;;5076033;28;20055;-71
2023/10/02 07:30:27;;;;;;;69.03;48.22;;;36.20;96.00;;;;;;5075803;28;20070;-66
2023/10/02 07:33:02;;;;;;;64.05;45.88;;;36.20;96.00;;;;;;5076036;28;20020;-67
2023/10/02 07:35:29;;;;;;;59.10;45.13;;;36.30;95.80;;;;;;5075755;28;20025;-66
2023/10/02 07:37:59;;;;;;;62.15;45.28;;;36.30;96.00;;;;;;5076033;28;20032;-66
2023/10/02 07:40:48;;;;;;;71.60;52.85;;;36.40;95.70;;;;;;5075769;28;20445;-68
2023/10/02 07:43:18;;;;;;;90.47;58.65;;;36.50;95.60;;;;;;5075962;28;20035;-67
2023/10/02 07:46:02;;;;;;;71.90;51.22;;;36.40;95.70;;;;;;5075593;28;20025;-71
2023/10/02 07:48:35;;;;;;;79.28;52.55;;;36.40;95.40;;;;;;5075807;28;20082;-66
2023/10/02 07:51:03;;;;;;;84.32;62.13;;;36.30;95.70;;;;;;5076078;28;20077;-65
2023/10/02 07:53:43;;;;;;;95.05;71.15;;;36.20;95.70;;;;;;5075481;28;20051;-64
2023/10/02 07:56:14;;;;;;;141.85;105.07;;;36.10;95.50;;;;;;5083797;28;20026;-66
2023/10/02 07:58:41;;;;;;;130.63;97.28;;;36.10;95.70;;;;;;5096187;28;20032;-67
2023/10/02 08:01:14;;;;;;;84.15;59.65;;;36.10;95.90;;;;;;5095993;28;20020;-67
2023/10/02 08:03:43;;;;;;;86.25;61.72;;;36.10;95.30;;;;;;5095769;28;20443;-66
2023/10/02 08:12:01;;;;;;;74.88;55.20;;;36.20;95.50;;;;;;5076760;28;20082;-67
2023/10/02 08:14:42;;;;;;;94.88;68.43;;;36.10;95.20;;;;;;5095544;28;20051;-67
2023/10/02 08:18:00;;;;;;;99.80;67.03;;;36.00;95.50;;;;;;5095622;28;20035;-66
2023/10/02 08:20:15;;;;;;;96.57;70.68;;;36.00;95.70;;;;;;5095324;28;20062;-67
2023/10/02 08:22:47;;;;;;;106.00;75.47;;;36.00;95.50;;;;;;5095523;28;20060;-67
2023/10/02 08:25:15;;;;;;;101.72;74.85;;;36.10;95.50;;;;;;5079432;28;20029;-65
2023/10/02 08:27:42;;;;;;;114.60;76.45;;;36.00;95.10;;;;;;5074989;28;20033;-65
2023/10/02 08:30:59;;;;;;;103.63;71.40;;;36.00;95.70;;;;;;5075040;28;20023;-66
2023/10/02 08:33:08;;;;;;;86.85;64.28;;;36.00;95.70;;;;;;5067590;28;20033;-65
2023/10/02 08:35:40;;;;;;;84.60;63.65;;;35.90;95.30;;;;;;5083000;28;20020;-66
2023/10/02 08:38:21;;;;;;;97.53;67.75;;;35.90;99.90;;;;;;5094400;28;20504;-70
2023/10/02 08:40:57;;;;;;;147.27;87.68;;;35.90;99.90;;;;;;5094984;28;20097;-71
2023/10/02 08:43:27;;;;;;;442.55;184.75;;;35.90;99.90;;;;;;5095083;28;20027;-72
2023/10/02 08:45:54;;;;;;;574.08;279.33;;;36.00;99.90;;;;;;5095177;28;20425;-66
2023/10/02 08:48:22;;;;;;;375.73;178.00;;;36.00;99.90;;;;;;5094937;28;20359;-66
2023/10/02 08:50:49;;;;;;;79.78;57.53;;;36.00;99.90;;;;;;5095111;28;20028;-66
2023/10/02 08:53:23;;;;;;;76.38;55.97;;;36.10;99.90;;;;;;5094918;28;20028;-69
2023/10/02 08:56:21;;;;;;;69.18;52.90;;;36.10;99.90;;;;;;5093539;28;20051;-69
2023/10/02 09:01:33;;;;;;;70.93;53.10;;;35.90;99.90;;;;;;5094033;28;20077;-69
2023/10/02 09:06:58;;;;;;;73.07;50.13;;;35.90;99.70;;;;;;5095269;28;20027;-70
2023/10/02 09:09:45;;;;;;;69.38;48.28;;;35.80;97.80;;;;;;5095067;28;20028;-69
2023/10/02 09:12:17;;;;;;;62.90;49.33;;;35.90;99.90;;;;;;5095006;28;20020;-69
2023/10/02 09:14:44;;;;;;;69.45;51.88;;;35.80;94.30;;;;;;5094909;28;20453;-67
2023/10/02 09:19:55;;;;;;;65.63;51.92;;;35.80;93.50;;;;;;5095023;28;20394;-69
2023/10/02 09:22:23;;;;;;;69.25;54.10;;;35.90;93.30;;;;;;5094943;28;20027;-73
2023/10/02 09:25:26;;;;;;;132.75;99.18;;;35.80;93.20;;;;;;5093012;28;20028;-69
2023/10/02 09:28:13;;;;;;;104.07;76.70;;;35.80;77.30;;;;;;5084804;28;20028;-68
2023/10/02 09:30:45;;;;;;;87.20;63.80;;;35.90;92.70;;;;;;5074815;28;20483;-69
2023/10/02 09:33:22;;;;;;;93.32;70.70;;;35.80;92.50;;;;;;5074666;28;20032;-68
2023/10/02 09:35:52;;;;;;;113.40;79.75;;;35.80;92.40;;;;;;5074235;28;20475;-68
2023/10/02 09:38:23;;;;;;;136.23;91.93;;;35.80;92.40;;;;;;5074351;28;20032;-69
2023/10/02 09:40:54;;;;;;;137.00;94.43;;;35.80;91.70;;;;;;5073986;28;20020;-70
2023/10/02 09:43:28;;;;;;;140.68;92.75;;;35.70;92.10;;;;;;5074090;28;20505;-68
2023/10/02 09:46:05;;;;;;;146.25;93.90;;;35.70;92.60;;;;;;5074245;28;20399;-68
2023/10/02 09:48:52;;;;;;;150.90;97.25;;;35.70;92.50;;;;;;5073664;28;20073;-69
2023/10/02 09:51:25;;;;;;;150.27;98.65;;;35.60;92.60;;;;;;5073775;28;20017;-67
2023/10/02 09:54:05;;;;;;;137.77;89.68;;;35.60;99.90;;;;;;5073869;28;20048;-69
2023/10/02 09:56:53;;;;;;;139.85;91.10;;;35.50;99.90;;;;;;5073810;28;20024;-70
2023/10/02 09:59:23;;;;;;;133.65;89.40;;;35.50;99.90;;;;;;5073830;28;20029;-69
2023/10/02 10:02:08;;;;;;;137.57;93.78;;;35.50;99.90;;;;;;5073588;28;20028;-69
2023/10/02 10:05:22;;;;;;;136.02;93.68;;;35.50;99.90;;;;;;5073819;28;20029;-69
2023/10/02 10:13:46;;;;;;;202.90;131.25;;;35.30;99.90;;;;;;5073757;28;20027;-69
2023/10/02 10:16:30;;;;;;;246.50;169.93;;;35.30;99.90;;;;;;5091878;28;20512;-70
2023/10/02 10:19:44;;;;;;;257.25;178.10;;;35.30;99.90;;;;;;5093708;28;20473;-70
2023/10/02 10:21:57;;;;;;;273.73;178.32;;;35.20;99.90;;;;;;5086309;28;20032;-66
2023/10/02 10:24:33;;;;;;;275.65;186.40;;;35.10;99.90;;;;;;5093872;28;20024;-67
2023/10/02 10:27:01;;;;;;;290.90;198.32;;;35.00;99.90;;;;;;5093993;28;20535;-66
2023/10/02 10:29:41;;;;;;;305.45;206.98;;;35.00;99.90;;;;;;5093943;28;20509;-67
2023/10/02 10:32:27;;;;;;;278.20;190.57;;;34.90;99.90;;;;;;5093730;28;20024;-67
2023/10/02 10:35:12;;;;;;;277.92;180.20;;;34.80;99.90;;;;;;5093987;28;20024;-66
2023/10/02 10:37:48;;;;;;;248.32;164.50;;;34.80;99.90;;;;;;5093193;28;20020;-68
2023/10/02 10:40:44;;;;;;;226.45;153.02;;;34.70;99.90;;;;;;5093368;28;20035;-67
2023/10/02 10:43:14;;;;;;;230.88;152.85;;;34.50;99.90;;;;;;5093370;28;20032;-67
2023/10/02 10:45:41;;;;;;;226.68;149.95;;;34.40;99.90;;;;;;5093274;28;20023;-67
2023/10/02 10:48:23;;;;;;;201.57;138.30;;;34.30;99.90;;;;;;5079005;28;20028;-66
2023/10/02 10:51:06;;;;;;;182.45;118.55;;;34.20;99.90;;;;;;5073027;28;20155;-67
2023/10/02 10:53:41;;;;;;;158.20;113.00;;;34.10;99.90;;;;;;5078420;28;20045;-69
2023/10/02 10:56:17;;;;;;;203.38;150.73;;;34.00;99.90;;;;;;5083765;28;20032;-68
2023/10/02 10:58:44;;;;;;;139.93;102.35;;;34.00;99.90;;;;;;5083474;28;20031;-66
2023/10/02 11:01:20;;;;;;;138.93;97.55;;;33.90;99.90;;;;;;5085188;28;20031;-67
2023/10/02 11:03:55;;;;;;;115.30;82.38;;;33.80;99.90;;;;;;5086766;28;20363;-68
2023/10/02 11:06:22;;;;;;;106.07;76.63;;;33.80;99.90;;;;;;5086713;28;20020;-68
2023/10/02 11:09:27;;;;;;;106.15;75.22;;;33.80;99.90;;;;;;5084848;28;20051;-68
2023/10/02 11:11:54;;;;;;;108.32;73.25;;;33.70;99.90;;;;;;5085279;28;20024;-67
2023/10/02 11:14:35;;;;;;;98.00;72.43;;;33.80;99.90;;;;;;5086433;28;20028;-67
2023/10/02 11:17:04;;;;;;;91.57;69.88;;;33.70;99.90;;;;;;5086476;28;20104;-67
2023/10/02 11:19:44;;;;;;;112.38;80.45;;;33.60;99.90;;;;;;5087943;28;20048;-67
2023/10/02 11:22:19;;;;;;;143.75;92.85;;;33.50;99.90;;;;;;5120271;22;20446;-67
2023/10/02 11:24:55;;;;;;;151.55;104.22;;;33.40;99.90;;;;;;5096199;28;20024;-66
2023/10/02 11:27:23;;;;;;;201.50;123.93;;;33.30;99.90;;;;;;5095530;28;20081;-66
2023/10/02 11:30:01;;;;;;;206.65;129.30;;;33.30;99.90;;;;;;5095881;28;20032;-67
2023/10/02 11:33:00;;;;;;;231.45;144.15;;;33.30;99.90;;;;;;5096459;28;20132;-67
2023/10/02 11:35:29;;;;;;;247.52;149.60;;;33.30;99.90;;;;;;5095808;28;20028;-67
2023/10/02 11:37:57;;;;;;;243.70;152.73;;;33.10;99.90;;;;;;5095869;28;20028;-67
2023/10/02 11:40:28;;;;;;;241.80;151.20;;;33.10;99.90;;;;;;5095894;28;20130;-67
2023/10/02 11:42:59;;;;;;;253.50;155.63;;;33.00;99.90;;;;;;5095525;28;20398;-66
2023/10/02 11:45:29;;;;;;;244.03;151.47;;;32.90;99.90;;;;;;5095056;28;20032;-67
2023/10/02 11:47:56;;;;;;;254.70;159.50;;;32.90;99.90;;;;;;5092288;28;20020;-68
2023/10/02 11:50:23;;;;;;;257.13;156.25;;;32.80;99.90;;;;;;5094852;28;20020;-65
2023/10/02 11:52:50;;;;;;;234.50;144.15;;;32.70;99.90;;;;;;5095906;28;20016;-67
2023/10/02 11:55:19;;;;;;;215.63;138.27;;;32.60;99.90;;;;;;5093371;28;20119;-66
2023/10/02 11:57:51;;;;;;;222.52;142.63;;;32.60;99.90;;;;;;5094687;28;20032;-68
2023/10/02 12:00:22;;;;;;;219.93;140.02;;;32.60;99.90;;;;;;5090936;28;20024;-67
2023/10/02 12:02:49;;;;;;;239.03;145.27;;;32.60;99.90;;;;;;5073378;28;20041;-68
2023/10/02 12:05:19;;;;;;;224.38;142.10;;;32.60;99.90;;;;;;5068349;28;20051;-67
2023/10/02 12:07:46;;;;;;;232.20;147.07;;;32.60;99.90;;;;;;5074475;28;20497;-66
2023/10/02 12:10:15;;;;;;;233.75;142.77;;;32.50;99.90;;;;;;5074394;28;20604;-66
2023/10/02 12:12:45;;;;;;;210.45;134.98;;;32.60;99.90;;;;;;5074424;28;20371;-68
2023/10/02 12:15:16;;;;;;;229.02;134.43;;;32.50;99.90;;;;;;5074180;28;20024;-67
2023/10/02 12:17:43;;;;;;;220.95;137.20;;;32.50;99.90;;;;;;5074402;28;20032;-67
2023/10/02 12:20:12;;;;;;;209.70;133.50;;;32.40;99.90;;;;;;5074182;28;20043;-66
2023/10/02 12:22:40;;;;;;;248.88;158.95;;;32.40;99.90;;;;;;5071548;28;20059;-65
2023/10/02 12:25:09;;;;;;;272.92;171.35;;;32.30;99.90;;;;;;5073866;28;20078;-66
2023/10/02 12:27:39;;;;;;;257.73;157.18;;;32.30;99.90;;;;;;5071421;28;20023;-66
2023/10/02 12:30:11;;;;;;;228.45;138.45;;;32.30;99.90;;;;;;5073951;28;20029;-65
2023/10/02 12:32:39;;;;;;;242.32;148.13;;;32.20;99.90;;;;;;5071362;28;20710;-66
2023/10/02 12:35:06;;;;;;;224.57;138.25;;;32.10;99.90;;;;;;5073882;28;20410;-66
2023/10/02 12:37:32;;;;;;;234.95;141.50;;;32.00;99.90;;;;;;5073683;28;20197;-67
2023/10/02 12:39:59;;;;;;;231.93;139.98;;;32.00;99.90;;;;;;5074001;28;20024;-65
2023/10/02 12:42:26;;;;;;;216.90;135.27;;;32.00;99.90;;;;;;5073800;28;20021;-65
2023/10/02 12:44:54;;;;;;;235.38;144.63;;;32.00;99.90;;;;;;5073437;28;20055;-66
2023/10/02 12:47:21;;;;;;;257.10;154.25;;;32.00;99.90;;;;;;5073685;28;20134;-65
2023/10/02 12:49:54;;;;;;;272.35;161.00;;;31.90;99.90;;;;;;5073908;28;20032;-66
2023/10/02 12:52:22;;;;;;;280.75;165.25;;;31.90;99.90;;;;;;5068355;28;20028;-65
2023/10/02 12:54:49;;;;;;;290.42;173.40;;;31.90;99.90;;;;;;5073613;28;20098;-64
2023/10/02 12:57:15;;;;;;;288.60;175.20;;;31.90;99.90;;;;;;5074214;28;20490;-64
2023/10/02 12:59:44;;;;;;;293.38;169.85;;;31.80;99.90;;;;;;5078223;28;20468;-63
2023/10/02 13:02:10;;;;;;;298.30;175.60;;;31.80;99.90;;;;;;5073681;28;20418;-65
2023/10/02 13:04:37;;;;;;;321.30;186.82;;;31.80;99.90;;;;;;5074134;28;20055;-64
2023/10/02 13:07:05;;;;;;;308.52;178.95;;;31.80;99.90;;;;;;5073738;28;20040;-65
2023/10/02 13:09:32;;;;;;;306.40;182.63;;;31.90;99.90;;;;;;5073831;28;20032;-64
2023/10/02 13:12:00;;;;;;;303.38;186.93;;;31.80;99.90;;;;;;5073617;28;20028;-64
2023/10/02 13:14:26;;;;;;;309.45;191.02;;;31.80;99.90;;;;;;5075247;28;20032;-62
2023/10/02 13:16:53;;;;;;;314.05;200.75;;;31.70;99.90;;;;;;5072355;28;20039;-64
2023/10/02 13:19:20;;;;;;;329.88;202.80;;;31.70;99.90;;;;;;5073665;28;20111;-65
2023/10/02 13:21:52;;;;;;;333.05;208.60;;;31.70;99.90;;;;;;5072481;28;20040;-63
2023/10/02 13:24:23;;;;;;;345.73;218.00;;;31.70;99.90;;;;;;5071582;28;20159;-64
2023/10/02 13:26:50;;;;;;;361.98;236.57;;;31.60;99.90;;;;;;5072624;28;20115;-65
2023/10/02 13:29:18;;;;;;;340.67;217.57;;;31.50;99.90;;;;;;5072202;28;20028;-63
2023/10/02 13:31:47;;;;;;;332.80;208.88;;;31.40;99.90;;;;;;5072995;28;20028;-64
2023/10/02 13:34:14;;;;;;;323.10;206.40;;;31.40;99.90;;;;;;5076591;28;20035;-66
2023/10/02 13:36:41;;;;;;;288.80;186.88;;;31.40;99.90;;;;;;5073349;28;20037;-63
2023/10/02 13:39:13;;;;;;;277.42;176.68;;;31.30;99.90;;;;;;5072594;28;20032;-64
2023/10/02 13:41:39;;;;;;;;;;;31.20;99.90;;;;;;5070230;28;20086;-65
2023/10/02 13:44:07;;;;;;;258.17;162.82;;;31.20;99.90;;;;;;5073063;28;20339;-65
2023/10/02 13:46:40;;;;;;;227.38;146.50;;;31.20;99.90;;;;;;5073077;28;20028;-66
2023/10/02 13:49:08;;;;;;;218.00;139.10;;;31.10;99.90;;;;;;5072822;28;20047;-64
2023/10/02 13:51:35;;;;;;;196.70;131.90;;;31.10;99.90;;;;;;5072829;28;20032;-64
2023/10/02 13:54:02;;;;;;;190.15;115.13;;;31.10;99.90;;;;;;5072560;28;20040;-64